createdAt,value
2022-08-26T00:01:52.877Z,22.50
2022-08-26T00:04:22.106Z,22.60
2022-08-26T00:06:51.452Z,22.60
2022-08-26T00:09:19.616Z,22.50
2022-08-26T00:11:47.777Z,22.50
2022-08-26T00:14:16.320Z,22.40
2022-08-26T00:16:47.168Z,22.40
2022-08-26T00:19:17.117Z,22.30
2022-08-26T00:21:45.158Z,22.40
2022-08-26T00:24:14.376Z,22.40
2022-08-26T00:26:42.232Z,22.40
2022-08-26T00:29:10.860Z,22.30
2022-08-26T00:31:38.919Z,22.30
2022-08-26T00:34:09.519Z,22.40
2022-08-26T00:36:37.884Z,22.30
2022-08-26T00:39:08.142Z,22.20
2022-08-26T00:41:39.208Z,22.30
2022-08-26T00:44:07.391Z,22.30
2022-08-26T00:46:36.453Z,22.20
2022-08-26T00:49:11.915Z,22.10
2022-08-26T00:51:43.973Z,22.10
2022-08-26T00:54:12.259Z,22.10
2022-08-26T00:56:44.534Z,22.20
2022-08-26T00:59:17.143Z,22.10
2022-08-26T01:01:46.024Z,22.10
2022-08-26T01:04:15.934Z,22.10
2022-08-26T01:06:44.395Z,22.10
2022-08-26T01:09:12.539Z,22.10
2022-08-26T01:11:40.859Z,22.10
2022-08-26T01:14:10.542Z,22.10
2022-08-26T01:16:38.542Z,22.10
2022-08-26T01:19:08.987Z,22.10
2022-08-26T01:21:40.604Z,22.00
2022-08-26T01:24:10.970Z,22.00
2022-08-26T01:26:43.037Z,22.00
2022-08-26T01:29:13.050Z,22.00
2022-08-26T01:31:43.187Z,22.00
2022-08-26T01:34:13.328Z,22.00
2022-08-26T01:36:41.367Z,22.00
2022-08-26T01:39:11.573Z,21.90
2022-08-26T01:41:40.558Z,21.90
2022-08-26T01:44:15.705Z,21.90
2022-08-26T01:46:44.545Z,21.90
2022-08-26T01:49:14.828Z,21.90
2022-08-26T01:51:44.453Z,21.80
2022-08-26T01:54:13.968Z,21.90
2022-08-26T01:56:42.142Z,21.80
2022-08-26T01:59:12.813Z,21.80
2022-08-26T02:01:41.611Z,21.80
2022-08-26T02:04:14.317Z,21.80
2022-08-26T02:06:43.426Z,21.80
2022-08-26T02:09:12.071Z,21.80
2022-08-26T02:11:41.376Z,21.80
2022-08-26T02:14:10.960Z,21.80
2022-08-26T02:16:42.829Z,21.80
2022-08-26T02:19:16.854Z,21.70
2022-08-26T02:21:46.362Z,21.70
2022-08-26T02:24:21.366Z,21.70
2022-08-26T02:26:50.714Z,21.70
2022-08-26T02:29:21.539Z,21.70
2022-08-26T02:31:49.468Z,21.70
2022-08-26T02:34:20.725Z,21.70
2022-08-26T02:36:49.416Z,21.70
2022-08-26T02:39:22.121Z,21.70
2022-08-26T02:41:51.788Z,21.60
2022-08-26T02:44:19.856Z,21.60
2022-08-26T02:46:47.745Z,21.60
2022-08-26T02:49:16.258Z,21.70
2022-08-26T02:51:44.998Z,21.60
2022-08-26T02:54:12.849Z,21.50
2022-08-26T02:56:40.683Z,21.50
2022-08-26T02:59:12.380Z,21.50
2022-08-26T03:01:40.710Z,21.50
2022-08-26T03:04:09.705Z,21.50
2022-08-26T03:06:38.310Z,21.50
2022-08-26T03:09:06.925Z,21.50
2022-08-26T03:11:36.573Z,21.40
2022-08-26T03:14:05.311Z,21.40
2022-08-26T03:16:35.563Z,21.40
2022-08-26T03:19:04.126Z,21.40
2022-08-26T03:21:32.417Z,21.40
2022-08-26T03:24:00.663Z,21.30
2022-08-26T03:26:29.222Z,21.30
2022-08-26T03:29:15.076Z,21.30
2022-08-26T03:31:44.540Z,21.30
2022-08-26T03:34:15.026Z,21.20
2022-08-26T03:36:43.330Z,21.20
2022-08-26T03:39:11.291Z,21.20
2022-08-26T03:41:39.296Z,21.20
2022-08-26T03:44:08.776Z,21.20
2022-08-26T03:46:37.403Z,21.20
2022-08-26T03:49:07.920Z,21.10
2022-08-26T03:51:38.654Z,21.20
2022-08-26T03:54:08.169Z,21.10
2022-08-26T03:56:36.701Z,21.10
2022-08-26T03:59:04.689Z,21.10
2022-08-26T04:01:36.378Z,21.00
2022-08-26T04:04:04.607Z,21.00
2022-08-26T04:06:36.743Z,21.00
2022-08-26T04:09:05.749Z,21.00
2022-08-26T04:11:35.843Z,21.10
2022-08-26T04:14:07.562Z,21.10
2022-08-26T04:16:35.619Z,21.10
2022-08-26T04:19:03.556Z,21.10
2022-08-26T04:21:31.454Z,21.10
2022-08-26T04:24:03.639Z,21.00
2022-08-26T04:26:36.946Z,21.00
2022-08-26T04:29:08.660Z,21.00
2022-08-26T04:31:37.500Z,21.10
2022-08-26T04:34:07.031Z,20.90
2022-08-26T04:36:35.304Z,20.90
2022-08-26T04:39:05.467Z,20.90
2022-08-26T04:41:33.553Z,20.80
2022-08-26T04:44:02.407Z,20.80
2022-08-26T04:46:30.854Z,20.80
2022-08-26T04:48:58.735Z,20.80
2022-08-26T04:51:28.479Z,20.80
2022-08-26T04:53:57.194Z,20.90
2022-08-26T04:56:27.122Z,20.80
2022-08-26T04:58:56.561Z,20.80
2022-08-26T05:01:24.714Z,20.80
2022-08-26T05:03:52.681Z,20.90
2022-08-26T05:06:20.655Z,20.80
2022-08-26T05:08:49.886Z,20.80
2022-08-26T05:11:17.747Z,20.80
2022-08-26T05:13:47.636Z,20.80
2022-08-26T05:16:16.358Z,20.80
2022-08-26T05:18:44.994Z,20.80
2022-08-26T05:21:18.381Z,20.90
2022-08-26T05:23:46.232Z,20.90
2022-08-26T05:26:14.281Z,20.90
2022-08-26T05:28:44.777Z,20.90
2022-08-26T05:31:15.089Z,20.90
2022-08-26T05:33:45.441Z,20.90
2022-08-26T05:36:15.187Z,20.90
2022-08-26T05:38:43.972Z,20.90
2022-08-26T05:41:16.015Z,20.90
2022-08-26T05:43:44.969Z,21.00
2022-08-26T05:46:14.756Z,21.00
2022-08-26T05:48:44.245Z,21.00
2022-08-26T05:51:12.847Z,21.10
2022-08-26T05:53:43.893Z,21.00
2022-08-26T05:56:24.878Z,21.10
2022-08-26T05:58:52.962Z,21.00
2022-08-26T06:01:24.109Z,21.10
2022-08-26T06:03:52.959Z,21.10
2022-08-26T06:06:27.229Z,21.10
2022-08-26T06:08:56.059Z,21.10
2022-08-26T06:11:25.424Z,21.10
2022-08-26T06:13:53.902Z,21.10
2022-08-26T06:16:24.626Z,21.20
2022-08-26T06:18:53.296Z,21.20
2022-08-26T06:21:24.221Z,21.20
2022-08-26T06:24:10.398Z,21.30
2022-08-26T06:26:38.922Z,21.30
2022-08-26T06:29:10.904Z,21.30
2022-08-26T06:31:44.691Z,21.30
2022-08-26T06:34:12.844Z,21.40
2022-08-26T06:36:42.266Z,21.30
2022-08-26T06:39:12.861Z,21.50
2022-08-26T06:41:43.690Z,21.50
2022-08-26T06:44:12.049Z,21.60
2022-08-26T06:46:40.354Z,21.70
2022-08-26T06:49:09.686Z,21.60
2022-08-26T06:51:39.601Z,21.70
2022-08-26T06:54:08.236Z,21.70
2022-08-26T06:56:37.595Z,21.70
2022-08-26T06:59:07.220Z,21.70
2022-08-26T07:01:36.899Z,21.70
2022-08-26T07:04:10.519Z,21.80
2022-08-26T07:06:41.081Z,21.90
2022-08-26T07:09:11.527Z,22.00
2022-08-26T07:11:40.254Z,22.10
2022-08-26T07:14:09.026Z,22.20
2022-08-26T07:16:37.070Z,22.30
2022-08-26T07:19:10.814Z,22.40
2022-08-26T07:21:41.569Z,22.40
2022-08-26T07:24:10.995Z,22.40
2022-08-26T07:26:42.933Z,22.50
2022-08-26T07:29:11.566Z,22.50
2022-08-26T07:31:42.784Z,22.60
2022-08-26T07:34:10.984Z,22.50
2022-08-26T07:36:40.675Z,22.60
2022-08-26T07:39:08.838Z,22.70
2022-08-26T07:41:37.616Z,22.80
2022-08-26T07:44:06.165Z,22.90
2022-08-26T07:46:36.380Z,23.00
2022-08-26T07:49:04.462Z,23.20
2022-08-26T07:51:33.252Z,23.30
2022-08-26T07:54:02.485Z,23.50
2022-08-26T07:56:30.406Z,23.60
2022-08-26T07:58:58.323Z,23.80
2022-08-26T08:01:27.044Z,23.90
2022-08-26T08:03:56.401Z,23.70
2022-08-26T08:06:27.121Z,23.50
2022-08-26T08:08:55.807Z,23.60
2022-08-26T08:11:27.232Z,23.50
2022-08-26T08:13:56.851Z,23.40
2022-08-26T08:16:25.386Z,23.50
2022-08-26T08:18:53.940Z,23.30
2022-08-26T08:21:23.766Z,23.30
2022-08-26T08:23:52.450Z,23.50
2022-08-26T08:26:20.703Z,23.70
2022-08-26T08:28:50.027Z,23.80
2022-08-26T08:31:38.619Z,23.70
2022-08-26T08:34:09.560Z,23.70
2022-08-26T08:36:37.392Z,23.70
2022-08-26T08:39:06.357Z,23.80
2022-08-26T08:41:44.992Z,23.70
2022-08-26T08:44:16.138Z,23.70
2022-08-26T08:46:44.763Z,23.50
2022-08-26T08:49:14.659Z,23.40
2022-08-26T08:51:48.081Z,23.50
2022-08-26T08:54:16.083Z,23.50
2022-08-26T08:56:47.845Z,23.70
2022-08-26T08:59:18.239Z,23.80
2022-08-26T09:01:52.493Z,23.50
2022-08-26T09:04:42.760Z,23.50
2022-08-26T09:07:13.061Z,23.50
2022-08-26T09:09:42.654Z,23.40
2022-08-26T09:12:13.989Z,23.50
2022-08-26T09:14:43.758Z,23.50
2022-08-26T09:17:16.749Z,23.60
2022-08-26T09:19:49.928Z,23.60
2022-08-26T09:22:29.050Z,23.80
2022-08-26T09:24:57.259Z,23.80
2022-08-26T09:27:37.698Z,23.70
2022-08-26T09:30:08.429Z,23.70
2022-08-26T09:32:40.071Z,23.80
2022-08-26T09:35:09.192Z,23.80
2022-08-26T09:37:41.826Z,23.80
2022-08-26T09:40:14.142Z,23.80
2022-08-26T09:42:42.517Z,23.80
2022-08-26T09:45:13.109Z,23.70
2022-08-26T09:47:52.504Z,23.80
2022-08-26T09:50:28.953Z,24.00
2022-08-26T09:53:15.830Z,23.80
2022-08-26T09:55:44.250Z,23.70
2022-08-26T09:58:14.479Z,23.80
2022-08-26T10:00:45.359Z,23.90
2022-08-26T10:03:17.383Z,23.90
2022-08-26T10:05:47.662Z,24.00
2022-08-26T10:08:23.617Z,24.00
2022-08-26T10:10:53.070Z,24.10
2022-08-26T10:13:24.707Z,24.10
2022-08-26T10:15:58.107Z,24.10
2022-08-26T10:18:34.073Z,24.10
2022-08-26T10:21:06.378Z,24.10
2022-08-26T10:26:14.419Z,24.00
2022-08-26T10:28:44.607Z,24.20
2022-08-26T10:31:20.004Z,24.20
2022-08-26T10:33:52.522Z,24.00
2022-08-26T10:37:05.185Z,24.00
2022-08-26T10:39:31.701Z,23.90
2022-08-26T10:42:01.405Z,24.10
2022-08-26T10:44:32.322Z,24.00
2022-08-26T10:47:03.988Z,24.00
2022-08-26T10:49:33.103Z,24.00
2022-08-26T10:52:04.623Z,23.80
2022-08-26T10:54:47.427Z,23.90
2022-08-26T10:57:18.281Z,24.00
2022-08-26T10:59:52.160Z,24.20
2022-08-26T11:02:25.763Z,24.20
2022-08-26T11:04:55.884Z,24.30
2022-08-26T11:07:37.857Z,24.40
2022-08-26T11:10:12.101Z,24.20
2022-08-26T11:13:04.668Z,24.30
2022-08-26T11:15:51.234Z,24.40
2022-08-26T11:18:33.933Z,24.50
2022-08-26T11:21:03.476Z,24.60
2022-08-26T11:23:50.552Z,24.70
2022-08-26T11:26:36.329Z,24.70
2022-08-26T11:29:13.148Z,24.60
2022-08-26T11:31:54.717Z,24.50
2022-08-26T11:34:42.628Z,24.30
2022-08-26T11:37:17.273Z,24.30
2022-08-26T11:39:54.437Z,24.40
2022-08-26T11:42:28.406Z,24.40
2022-08-26T11:44:58.089Z,24.40
2022-08-26T11:47:27.359Z,24.50
2022-08-26T11:50:10.835Z,24.30
2022-08-26T11:52:40.147Z,24.30
2022-08-26T11:55:11.028Z,24.10
2022-08-26T11:57:43.048Z,24.20
2022-08-26T12:00:15.863Z,24.00
2022-08-26T12:02:48.427Z,24.10
2022-08-26T12:05:18.444Z,24.10
2022-08-26T12:07:50.812Z,24.10
2022-08-26T12:10:29.554Z,24.10
2022-08-26T12:12:59.019Z,24.20
2022-08-26T12:15:27.678Z,24.30
2022-08-26T12:17:58.046Z,24.60
2022-08-26T12:20:45.769Z,24.90
2022-08-26T12:23:29.130Z,25.10
2022-08-26T12:26:04.125Z,25.10
2022-08-26T12:28:32.223Z,25.10
2022-08-26T12:31:00.986Z,25.20
2022-08-26T12:33:29.261Z,25.30
2022-08-26T12:35:57.534Z,25.30
2022-08-26T12:38:27.791Z,25.40
2022-08-26T12:40:56.988Z,25.30
2022-08-26T12:43:38.815Z,25.20
2022-08-26T12:46:07.254Z,25.10
2022-08-26T12:48:38.570Z,25.20
2022-08-26T12:51:08.229Z,25.30
2022-08-26T12:53:42.774Z,25.30
2022-08-26T12:56:20.510Z,25.60
2022-08-26T12:59:01.444Z,25.60
2022-08-26T13:01:36.534Z,25.60
2022-08-26T13:04:05.486Z,25.40
2022-08-26T13:06:34.756Z,25.40
2022-08-26T13:09:06.453Z,25.30
2022-08-26T13:11:35.680Z,25.40
2022-08-26T13:14:07.541Z,25.40
2022-08-26T13:16:35.613Z,25.40
2022-08-26T13:19:04.678Z,25.40
2022-08-26T13:21:37.773Z,25.20
2022-08-26T13:24:10.589Z,25.10
2022-08-26T13:26:38.458Z,25.00
2022-08-26T13:29:10.158Z,25.10
2022-08-26T13:31:39.667Z,25.10
2022-08-26T13:34:08.455Z,25.10
2022-08-26T13:36:36.590Z,25.00
2022-08-26T13:39:04.911Z,25.10
2022-08-26T13:41:34.199Z,25.10
2022-08-26T13:44:02.050Z,25.10
2022-08-26T13:46:30.396Z,25.40
2022-08-26T13:48:58.642Z,25.50
2022-08-26T13:51:27.061Z,25.60
2022-08-26T13:53:54.938Z,25.70
2022-08-26T13:56:23.326Z,25.80
2022-08-26T13:58:52.510Z,25.80
2022-08-26T14:01:20.338Z,25.60
2022-08-26T14:03:48.262Z,25.50
2022-08-26T14:06:16.644Z,25.40
2022-08-26T14:08:44.794Z,25.40
2022-08-26T14:11:13.077Z,25.60
2022-08-26T14:13:40.987Z,25.80
2022-08-26T14:16:11.550Z,25.70
2022-08-26T14:18:45.199Z,25.60
2022-08-26T14:21:15.322Z,25.80
2022-08-26T14:23:43.124Z,26.00
2022-08-26T14:26:16.810Z,26.00
2022-08-26T14:28:56.469Z,26.10
2022-08-26T14:31:26.976Z,26.00
2022-08-26T14:33:56.082Z,26.30
2022-08-26T14:36:31.916Z,26.50
2022-08-26T14:39:01.875Z,26.30
2022-08-26T14:41:30.764Z,26.10
2022-08-26T14:44:01.011Z,26.10
2022-08-26T14:46:31.450Z,26.00
2022-08-26T14:49:01.041Z,26.00
2022-08-26T14:51:30.110Z,26.00
2022-08-26T14:54:12.783Z,25.90
2022-08-26T14:56:43.547Z,26.10
2022-08-26T14:59:11.670Z,26.10
2022-08-26T15:01:40.995Z,26.10
2022-08-26T15:04:08.971Z,26.10
2022-08-26T15:06:37.013Z,26.00
2022-08-26T15:09:05.197Z,25.90
2022-08-26T15:11:33.104Z,25.90
2022-08-26T15:14:01.112Z,25.80
2022-08-26T15:16:29.524Z,25.90
2022-08-26T15:18:59.034Z,26.00
2022-08-26T15:21:27.050Z,25.90
2022-08-26T15:23:55.032Z,25.90
2022-08-26T15:26:23.560Z,25.90
2022-08-26T15:28:51.517Z,25.90
2022-08-26T15:31:19.439Z,26.10
2022-08-26T15:33:47.463Z,26.20
2022-08-26T15:36:16.711Z,26.10
2022-08-26T15:38:44.627Z,26.10
2022-08-26T15:41:14.283Z,26.10
2022-08-26T15:43:42.229Z,26.50
2022-08-26T15:46:11.872Z,26.80
2022-08-26T15:48:39.769Z,27.10
2022-08-26T15:51:08.381Z,26.80
2022-08-26T15:53:37.586Z,26.80
2022-08-26T15:56:05.454Z,26.90
2022-08-26T15:58:33.357Z,26.80
2022-08-26T16:01:04.377Z,27.00
2022-08-26T16:03:32.233Z,26.90
2022-08-26T16:06:00.252Z,27.00
2022-08-26T16:08:28.196Z,27.00
2022-08-26T16:11:03.395Z,27.00
2022-08-26T16:13:39.801Z,27.00
2022-08-26T16:16:08.857Z,27.00
2022-08-26T16:18:37.009Z,26.90
2022-08-26T16:21:12.426Z,26.60
2022-08-26T16:23:40.922Z,26.40
2022-08-26T16:26:15.302Z,26.40
2022-08-26T16:28:43.510Z,26.60
2022-08-26T16:31:12.273Z,26.70
2022-08-26T16:33:40.704Z,26.60
2022-08-26T16:36:09.255Z,26.70
2022-08-26T16:38:37.633Z,26.60
2022-08-26T16:41:05.910Z,26.60
2022-08-26T16:43:35.378Z,26.40
2022-08-26T16:46:03.286Z,26.40
2022-08-26T16:48:31.161Z,26.30
2022-08-26T16:50:59.041Z,26.20
2022-08-26T16:53:26.954Z,25.90
2022-08-26T16:55:55.440Z,25.70
2022-08-26T16:58:23.338Z,25.50
2022-08-26T17:00:52.584Z,25.60
2022-08-26T17:03:20.563Z,25.60
2022-08-26T17:05:48.400Z,25.80
2022-08-26T17:08:28.500Z,25.80
2022-08-26T17:10:56.722Z,25.80
2022-08-26T17:13:34.806Z,25.60
2022-08-26T17:16:05.817Z,25.60
2022-08-26T17:18:33.809Z,25.40
2022-08-26T17:21:02.275Z,25.20
2022-08-26T17:23:30.237Z,25.20
2022-08-26T17:25:58.116Z,24.90
2022-08-26T17:28:26.039Z,25.00
2022-08-26T17:30:53.933Z,25.00
2022-08-26T17:33:24.839Z,24.80
2022-08-26T17:35:53.577Z,24.80
2022-08-26T17:38:21.870Z,24.90
2022-08-26T17:40:50.215Z,25.00
2022-08-26T17:43:18.295Z,24.90
2022-08-26T17:45:46.213Z,24.80
2022-08-26T17:48:14.229Z,24.80
2022-08-26T17:50:46.298Z,24.70
2022-08-26T17:53:19.036Z,24.70
2022-08-26T17:55:47.663Z,24.60
2022-08-26T17:58:16.050Z,24.40
2022-08-26T18:00:44.858Z,24.40
2022-08-26T18:03:13.011Z,24.20
2022-08-26T18:05:40.994Z,24.20
2022-08-26T18:08:10.616Z,24.10
2022-08-26T18:10:38.512Z,24.10
2022-08-26T18:13:06.641Z,23.80
2022-08-26T18:15:34.590Z,23.80
2022-08-26T18:18:02.507Z,23.80
2022-08-26T18:20:30.420Z,23.60
2022-08-26T18:22:58.308Z,23.50
2022-08-26T18:25:27.559Z,23.50
2022-08-26T18:27:55.657Z,23.50
2022-08-26T18:30:23.712Z,23.50
2022-08-26T18:32:51.875Z,23.40
2022-08-26T18:35:21.317Z,23.30
2022-08-26T18:37:49.261Z,23.20
2022-08-26T18:40:17.237Z,23.10
2022-08-26T18:42:47.020Z,23.00
2022-08-26T18:45:21.677Z,22.90
2022-08-26T18:47:49.597Z,22.80
2022-08-26T18:50:17.959Z,22.80
2022-08-26T18:52:45.775Z,22.80
2022-08-26T18:55:13.652Z,22.70
2022-08-26T18:57:41.500Z,22.70
2022-08-26T19:00:11.898Z,22.60
2022-08-26T19:02:39.841Z,22.50
2022-08-26T19:05:08.332Z,22.30
2022-08-26T19:07:39.606Z,22.20
2022-08-26T19:10:08.126Z,22.10
2022-08-26T19:12:36.336Z,22.00
2022-08-26T19:15:04.373Z,21.90
2022-08-26T19:17:33.596Z,21.90
2022-08-26T19:20:01.443Z,22.00
2022-08-26T19:22:29.346Z,21.90
2022-08-26T19:24:57.240Z,22.00
2022-08-26T19:27:25.153Z,21.90
2022-08-26T19:29:53.022Z,21.80
2022-08-26T19:32:24.196Z,21.80
2022-08-26T19:34:53.929Z,21.80
2022-08-26T19:37:22.094Z,21.80
2022-08-26T19:39:50.046Z,21.70
2022-08-26T19:42:18.205Z,21.70
2022-08-26T19:45:03.860Z,21.70
2022-08-26T19:47:31.897Z,21.60
2022-08-26T19:50:01.190Z,21.40
2022-08-26T19:52:30.098Z,21.50
2022-08-26T19:54:58.163Z,21.50
2022-08-26T19:57:26.099Z,21.50
2022-08-26T19:59:53.997Z,21.40
2022-08-26T20:02:21.993Z,21.50
2022-08-26T20:04:49.843Z,21.50
2022-08-26T20:07:19.165Z,21.40
2022-08-26T20:09:47.792Z,21.40
2022-08-26T20:12:16.130Z,21.40
2022-08-26T20:14:44.354Z,21.40
2022-08-26T20:17:12.265Z,21.40
2022-08-26T20:19:57.749Z,21.40
2022-08-26T20:22:27.029Z,21.30
2022-08-26T20:24:58.084Z,21.20
2022-08-26T20:27:30.810Z,21.20
2022-08-26T20:30:07.397Z,21.20
2022-08-26T20:32:35.721Z,21.10
2022-08-26T20:35:03.802Z,21.10
2022-08-26T20:37:33.107Z,21.10
2022-08-26T20:40:01.011Z,21.10
2022-08-26T20:42:29.055Z,21.10
2022-08-26T20:44:57.498Z,21.00
2022-08-26T20:47:25.376Z,21.00
2022-08-26T20:49:56.130Z,21.00
2022-08-26T20:52:23.997Z,20.90
2022-08-26T20:54:53.233Z,20.80
2022-08-26T20:57:22.278Z,20.80
2022-08-26T20:59:50.299Z,20.80
2022-08-26T21:02:18.195Z,20.80
2022-08-26T21:04:46.304Z,20.70
2022-08-26T21:07:14.208Z,20.70
2022-08-26T21:09:42.388Z,20.70
2022-08-26T21:12:12.868Z,20.60
2022-08-26T21:14:40.813Z,20.60
2022-08-26T21:17:08.673Z,20.60
2022-08-26T21:19:36.555Z,20.50
2022-08-26T21:22:04.958Z,20.60
2022-08-26T21:24:32.885Z,20.50
2022-08-26T21:27:00.735Z,20.40
2022-08-26T21:29:29.953Z,20.40
2022-08-26T21:31:58.537Z,20.40
2022-08-26T21:34:26.868Z,20.40
2022-08-26T21:36:55.036Z,20.30
2022-08-26T21:39:22.966Z,20.30
2022-08-26T21:41:51.145Z,20.20
2022-08-26T21:44:19.238Z,20.20
2022-08-26T21:46:49.046Z,20.10
2022-08-26T21:49:17.427Z,20.10
2022-08-26T21:51:46.442Z,20.10
2022-08-26T21:54:14.815Z,20.10
2022-08-26T21:56:44.304Z,20.00
2022-08-26T21:59:12.768Z,20.00
2022-08-26T22:01:40.699Z,20.00
2022-08-26T22:04:10.646Z,20.00
2022-08-26T22:06:41.745Z,20.00
2022-08-26T22:09:09.660Z,20.00
2022-08-26T22:11:37.999Z,20.00
2022-08-26T22:14:05.987Z,20.00
2022-08-26T22:16:33.936Z,19.90
2022-08-26T22:19:02.053Z,19.90
2022-08-26T22:21:31.245Z,19.90
2022-08-26T22:23:59.393Z,19.90
2022-08-26T22:26:28.021Z,19.90
2022-08-26T22:28:58.685Z,19.80
2022-08-26T22:31:28.118Z,19.80
2022-08-26T22:34:06.572Z,19.70
2022-08-26T22:36:36.100Z,19.70
2022-08-26T22:39:11.113Z,19.60
2022-08-26T22:41:39.197Z,19.50
2022-08-26T22:44:07.525Z,19.50
2022-08-26T22:46:36.775Z,19.50
2022-08-26T22:49:05.065Z,19.50
2022-08-26T22:51:33.398Z,19.40
2022-08-26T22:54:02.645Z,19.40
2022-08-26T22:56:30.549Z,19.20
2022-08-26T22:58:58.406Z,19.20
2022-08-26T23:01:26.357Z,19.20
2022-08-26T23:03:54.305Z,19.20
2022-08-26T23:06:22.180Z,19.20
2022-08-26T23:08:50.050Z,19.10
2022-08-26T23:11:19.311Z,19.10
2022-08-26T23:13:47.150Z,19.00
2022-08-26T23:16:15.069Z,19.00
2022-08-26T23:18:42.942Z,19.00
2022-08-26T23:21:10.919Z,19.00
2022-08-26T23:23:38.983Z,19.00
2022-08-26T23:26:07.762Z,19.00
2022-08-26T23:28:37.349Z,18.90
2022-08-26T23:31:05.239Z,18.90
2022-08-26T23:33:46.995Z,18.90
2022-08-26T23:36:18.183Z,18.90
2022-08-26T23:38:52.468Z,18.80
2022-08-26T23:41:21.017Z,18.90
2022-08-26T23:43:50.546Z,18.80
2022-08-26T23:46:18.379Z,18.90
2022-08-26T23:48:46.247Z,18.80
2022-08-26T23:51:31.244Z,18.80
2022-08-26T23:53:59.121Z,18.70
2022-08-26T23:56:27.006Z,18.70
2022-08-26T23:58:56.342Z,18.60
